createdAt,value
2023-05-09T00:00:11.680Z,101844.47
2023-05-09T00:02:41.647Z,101840.25
2023-05-09T00:05:16.758Z,101832.88
2023-05-09T00:13:07.865Z,101827.84
2023-05-09T00:15:36.540Z,101821.97
2023-05-09T00:18:03.360Z,101822.75
2023-05-09T00:20:31.240Z,101824.34
2023-05-09T00:23:02.320Z,101827.41
2023-05-09T00:25:30.111Z,101830.50
2023-05-09T00:28:00.450Z,101829.28
2023-05-09T00:30:30.893Z,101820.22
2023-05-09T00:35:39.968Z,101832.56
2023-05-09T00:38:07.313Z,101816.44
2023-05-09T00:40:33.868Z,101819.53
2023-05-09T00:43:07.782Z,101820.31
2023-05-09T00:45:36.287Z,101824.19
2023-05-09T00:48:03.397Z,101816.38
2023-05-09T00:50:31.775Z,101815.47
2023-05-09T00:53:06.171Z,101808.13
2023-05-09T00:55:33.905Z,101809.34
2023-05-09T00:58:03.944Z,101810.41
2023-05-09T01:00:31.298Z,101808.75
2023-05-09T01:02:58.600Z,101807.56
2023-05-09T01:05:38.673Z,101809.53
2023-05-09T01:08:12.434Z,101802.13
2023-05-09T01:11:01.421Z,101785.44
2023-05-09T01:13:45.903Z,101781.66
2023-05-09T01:20:00.477Z,101770.53
2023-05-09T01:22:32.230Z,101763.75
2023-05-09T01:25:11.276Z,101765.97
2023-05-09T01:27:45.360Z,101769.41
2023-05-09T01:30:15.467Z,101758.78
2023-05-09T01:35:28.233Z,101754.50
2023-05-09T01:37:55.504Z,101759.22
2023-05-09T01:40:31.103Z,101752.28
2023-05-09T01:43:08.914Z,101757.72
2023-05-09T01:45:40.844Z,101752.19
2023-05-09T01:48:09.585Z,101752.53
2023-05-09T01:53:26.669Z,101750.97
2023-05-09T01:55:57.907Z,101746.75
2023-05-09T02:01:09.541Z,101739.78
2023-05-09T02:06:26.150Z,101736.72
2023-05-09T02:11:34.076Z,101726.59
2023-05-09T02:14:04.067Z,101727.41
2023-05-09T02:16:32.479Z,101726.59
2023-05-09T02:18:59.795Z,101727.69
2023-05-09T02:26:48.291Z,101714.34
2023-05-09T02:29:19.337Z,101712.75
2023-05-09T02:31:52.315Z,101709.25
2023-05-09T02:34:20.553Z,101714.28
2023-05-09T02:36:49.119Z,101709.53
2023-05-09T02:39:16.148Z,101718.03
2023-05-09T02:41:48.356Z,101698.13
2023-05-09T02:44:16.578Z,101706.28
2023-05-09T02:46:44.782Z,101713.56
2023-05-09T02:49:22.822Z,101709.22
2023-05-09T02:51:57.855Z,101705.31
2023-05-09T02:54:26.000Z,101697.97
2023-05-09T02:56:56.380Z,101699.09
2023-05-09T02:59:24.593Z,101695.94
2023-05-09T03:01:51.347Z,101693.66
2023-05-09T03:04:19.329Z,101696.03
2023-05-09T03:06:49.879Z,101685.13
2023-05-09T03:09:17.873Z,101691.38
2023-05-09T03:11:45.926Z,101689.00
2023-05-09T03:14:13.496Z,101678.09
2023-05-09T03:16:40.074Z,101676.53
2023-05-09T03:19:07.388Z,101674.53
2023-05-09T03:21:34.254Z,101674.88
2023-05-09T03:24:00.883Z,101670.13
2023-05-09T03:29:08.701Z,101660.31
2023-05-09T03:31:35.992Z,101660.69
2023-05-09T03:34:06.317Z,101646.53
2023-05-09T03:36:33.498Z,101651.09
2023-05-09T03:39:00.900Z,101648.75
2023-05-09T03:41:29.144Z,101652.16
2023-05-09T03:43:57.384Z,101632.25
2023-05-09T03:46:23.895Z,101636.44
2023-05-09T03:48:51.044Z,101631.75
2023-05-09T03:51:18.102Z,101635.25
2023-05-09T03:56:27.686Z,101622.75
2023-05-09T03:58:55.084Z,101619.34
2023-05-09T04:01:23.356Z,101618.22
2023-05-09T04:03:50.515Z,101614.34
2023-05-09T04:06:17.434Z,101606.53
2023-05-09T04:08:48.064Z,101602.59
2023-05-09T04:11:16.216Z,101615.50
2023-05-09T04:13:43.417Z,101618.56
2023-05-09T04:16:10.347Z,101611.88
2023-05-09T04:18:40.508Z,101615.41
2023-05-09T04:21:07.190Z,101615.50
2023-05-09T04:23:33.775Z,101615.84
2023-05-09T04:26:00.968Z,101607.97
2023-05-09T04:28:27.694Z,101616.13
2023-05-09T04:30:54.407Z,101615.34
2023-05-09T04:33:22.167Z,101611.81
2023-05-09T04:35:48.792Z,101610.25
2023-05-09T04:38:18.101Z,101611.03
2023-05-09T04:40:44.771Z,101599.00
2023-05-09T04:43:11.468Z,101605.66
2023-05-09T04:45:38.255Z,101602.59
2023-05-09T04:48:05.435Z,101601.34
2023-05-09T04:50:32.007Z,101592.41
2023-05-09T04:52:59.207Z,101588.56
2023-05-09T04:55:26.360Z,101584.69
2023-05-09T04:57:56.569Z,101585.50
2023-05-09T05:00:24.404Z,101580.91
2023-05-09T05:05:37.343Z,101581.78
2023-05-09T05:08:21.620Z,101575.28
2023-05-09T05:10:50.944Z,101577.31
2023-05-09T05:13:17.672Z,101573.53
2023-05-09T05:15:52.290Z,101564.69
2023-05-09T05:18:18.963Z,101564.00
2023-05-09T05:20:53.441Z,101554.69
2023-05-09T05:28:49.083Z,101543.25
2023-05-09T05:39:17.695Z,101539.81
2023-05-09T05:44:25.017Z,101541.81
2023-05-09T05:52:19.156Z,101525.72
2023-05-09T06:00:28.754Z,101518.75
2023-05-09T06:02:59.923Z,101514.88
2023-05-09T06:05:26.780Z,101517.66
2023-05-09T06:07:53.145Z,101517.72
2023-05-09T06:10:19.736Z,101514.31
2023-05-09T06:12:46.176Z,101512.44
2023-05-09T06:15:13.171Z,101504.31
2023-05-09T06:17:40.210Z,101513.63
2023-05-09T06:20:07.203Z,101504.31
2023-05-09T06:22:34.398Z,101496.19
2023-05-09T06:25:00.890Z,101500.13
2023-05-09T06:27:27.352Z,101495.91
2023-05-09T06:29:53.784Z,101495.16
2023-05-09T06:32:20.469Z,101484.53
2023-05-09T06:34:46.964Z,101484.84
2023-05-09T06:37:13.549Z,101478.19
2023-05-09T06:39:40.288Z,101471.47
2023-05-09T06:42:06.651Z,101469.16
2023-05-09T06:44:33.089Z,101472.72
2023-05-09T06:46:59.523Z,101467.63
2023-05-09T06:49:26.620Z,101459.03
2023-05-09T06:51:53.058Z,101462.13
2023-05-09T06:54:19.683Z,101462.13
2023-05-09T06:56:46.292Z,101455.19
2023-05-09T06:59:13.414Z,101459.91
2023-05-09T07:01:41.197Z,101457.53
2023-05-09T07:04:07.818Z,101456.81
2023-05-09T07:06:34.310Z,101455.59
2023-05-09T07:09:00.923Z,101451.41
2023-05-09T07:11:27.551Z,101447.56
2023-05-09T07:13:53.934Z,101452.28
2023-05-09T07:16:22.891Z,101449.94
2023-05-09T07:18:49.495Z,101445.66
2023-05-09T07:21:15.900Z,101445.34
2023-05-09T07:23:42.298Z,101445.75
2023-05-09T07:26:08.733Z,101438.81
2023-05-09T07:28:35.181Z,101433.41
2023-05-09T07:31:01.592Z,101437.66
2023-05-09T07:33:28.057Z,101438.34
2023-05-09T07:35:54.830Z,101437.50
2023-05-09T07:38:21.279Z,101440.25
2023-05-09T07:40:47.821Z,101438.25
2023-05-09T07:43:14.302Z,101432.44
2023-05-09T07:45:40.978Z,101430.84
2023-05-09T07:48:07.710Z,101431.66
2023-05-09T07:50:34.260Z,101430.88
2023-05-09T07:53:00.795Z,101429.66
2023-05-09T07:55:27.372Z,101430.00
2023-05-09T07:57:53.728Z,101421.44
2023-05-09T08:00:23.898Z,101413.25
2023-05-09T08:02:51.551Z,101415.28
2023-05-09T08:05:18.451Z,101408.66
2023-05-09T08:07:45.396Z,101410.94
2023-05-09T08:10:12.039Z,101413.97
2023-05-09T08:12:38.904Z,101399.97
2023-05-09T08:15:06.148Z,101406.16
2023-05-09T08:17:32.658Z,101394.88
2023-05-09T08:19:59.457Z,101396.06
2023-05-09T08:22:26.040Z,101390.41
2023-05-09T08:24:52.470Z,101393.94
2023-05-09T08:27:18.917Z,101380.00
2023-05-09T08:29:45.448Z,101377.66
2023-05-09T08:32:11.974Z,101375.28
2023-05-09T08:34:38.480Z,101373.34
2023-05-09T08:37:05.257Z,101371.78
2023-05-09T08:39:31.828Z,101376.13
2023-05-09T08:42:00.075Z,101365.25
2023-05-09T08:44:28.837Z,101366.78
2023-05-09T08:46:58.480Z,101360.16
2023-05-09T08:49:25.980Z,101360.47
2023-05-09T08:51:53.122Z,101355.66
2023-05-09T08:54:22.786Z,101353.63
2023-05-09T08:56:50.356Z,101358.72
2023-05-09T08:59:18.753Z,101354.31
2023-05-09T09:01:45.729Z,101343.78
2023-05-09T09:04:12.261Z,101347.28
2023-05-09T09:06:40.553Z,101351.22
2023-05-09T09:09:08.871Z,101347.31
2023-05-09T09:11:36.876Z,101342.34
2023-05-09T09:14:28.590Z,101339.34
2023-05-09T09:16:57.193Z,101341.22
2023-05-09T09:19:29.854Z,101342.41
2023-05-09T09:21:59.738Z,101337.31
2023-05-09T09:24:26.143Z,101342.25
2023-05-09T09:26:52.782Z,101336.34
2023-05-09T09:29:21.027Z,101329.66
2023-05-09T09:31:52.105Z,101332.72
2023-05-09T09:34:23.092Z,101327.69
2023-05-09T09:36:50.097Z,101326.16
2023-05-09T09:39:16.763Z,101325.84
2023-05-09T09:41:44.850Z,101319.69
2023-05-09T09:44:16.848Z,101315.09
2023-05-09T09:46:50.687Z,101321.78
2023-05-09T09:49:22.213Z,101318.69
2023-05-09T09:51:55.810Z,101319.34
2023-05-09T09:54:23.101Z,101302.97
2023-05-09T09:56:53.312Z,101310.38
2023-05-09T09:59:22.052Z,101311.81
2023-05-09T10:01:58.680Z,101314.16
2023-05-09T10:04:26.991Z,101314.44
2023-05-09T10:06:57.989Z,101309.66
2023-05-09T10:09:26.064Z,101313.13
2023-05-09T10:11:54.208Z,101307.31
2023-05-09T10:14:23.505Z,101301.53
2023-05-09T10:16:52.687Z,101302.72
2023-05-09T10:19:23.454Z,101300.41
2023-05-09T10:21:53.435Z,101302.03
2023-05-09T10:24:27.952Z,101301.63
2023-05-09T10:27:06.659Z,101295.84
2023-05-09T10:29:36.583Z,101295.75
2023-05-09T10:32:23.214Z,101290.28
2023-05-09T10:34:54.614Z,101287.09
2023-05-09T10:37:22.248Z,101287.41
2023-05-09T10:39:53.129Z,101282.97
2023-05-09T10:42:20.306Z,101280.53
2023-05-09T10:44:47.860Z,101274.31
2023-05-09T10:47:15.468Z,101271.56
2023-05-09T10:49:43.635Z,101259.19
2023-05-09T10:52:10.946Z,101265.44
2023-05-09T10:54:38.022Z,101263.63
2023-05-09T10:57:08.793Z,101258.56
2023-05-09T10:59:41.126Z,101252.25
2023-05-09T11:02:16.528Z,101257.66
2023-05-09T11:04:44.580Z,101247.59
2023-05-09T11:07:27.640Z,101249.19
2023-05-09T11:10:14.989Z,101244.81
2023-05-09T11:12:57.727Z,101242.88
2023-05-09T11:15:24.786Z,101238.69
2023-05-09T11:18:06.144Z,101233.72
2023-05-09T11:20:36.451Z,101232.66
2023-05-09T11:23:06.991Z,101228.44
2023-05-09T11:25:33.434Z,101225.63
2023-05-09T11:28:03.318Z,101218.69
2023-05-09T11:30:40.431Z,101224.03
2023-05-09T11:33:21.016Z,101215.03
2023-05-09T11:35:47.524Z,101216.28
2023-05-09T11:38:21.156Z,101212.75
2023-05-09T11:40:47.772Z,101209.13
2023-05-09T11:43:14.601Z,101209.03
2023-05-09T11:45:41.730Z,101210.19
2023-05-09T11:48:11.547Z,101203.97
2023-05-09T11:50:38.218Z,101203.59
2023-05-09T11:53:04.981Z,101197.78
2023-05-09T11:55:32.686Z,101193.88
2023-05-09T11:57:59.387Z,101191.13
2023-05-09T12:00:26.558Z,101198.03
2023-05-09T12:02:53.941Z,101203.38
2023-05-09T12:05:22.930Z,101190.03
2023-05-09T12:07:50.897Z,101189.94
2023-05-09T12:10:20.813Z,101187.59
2023-05-09T12:12:51.713Z,101193.00
2023-05-09T12:15:19.772Z,101184.69
2023-05-09T12:17:48.130Z,101181.97
2023-05-09T12:20:16.194Z,101178.53
2023-05-09T12:22:43.844Z,101182.03
2023-05-09T12:25:12.467Z,101180.06
2023-05-09T12:27:40.712Z,101174.34
2023-05-09T12:30:10.535Z,101171.72
2023-05-09T12:32:39.639Z,101169.44
2023-05-09T12:35:11.011Z,101169.03
2023-05-09T12:37:38.010Z,101169.00
2023-05-09T12:40:08.676Z,101164.69
2023-05-09T12:42:36.132Z,101165.81
2023-05-09T12:45:03.649Z,101150.66
2023-05-09T12:47:31.808Z,101148.34
2023-05-09T12:50:03.161Z,101150.69
2023-05-09T12:53:02.102Z,101147.69
2023-05-09T12:55:30.292Z,101143.94
2023-05-09T12:58:02.457Z,101138.69
2023-05-09T13:00:41.598Z,101132.56
2023-05-09T13:03:31.333Z,101140.38
2023-05-09T13:06:01.991Z,101138.38
2023-05-09T13:08:29.462Z,101130.97
2023-05-09T13:11:07.803Z,101125.94
2023-05-09T13:13:34.799Z,101115.03
2023-05-09T13:16:04.207Z,101123.97
2023-05-09T13:18:31.142Z,101122.34
2023-05-09T13:20:57.711Z,101117.69
2023-05-09T13:23:24.281Z,101110.38
2023-05-09T13:25:51.425Z,101111.59
2023-05-09T13:28:18.005Z,101111.59
2023-05-09T13:30:45.897Z,101102.22
2023-05-09T13:33:24.409Z,101101.88
2023-05-09T13:35:52.599Z,101101.88
2023-05-09T13:38:19.177Z,101099.94
2023-05-09T13:40:45.877Z,101093.00
2023-05-09T13:43:12.285Z,101090.34
2023-05-09T13:45:38.833Z,101089.66
2023-05-09T13:48:05.741Z,101090.03
2023-05-09T13:50:32.218Z,101089.16
2023-05-09T13:52:58.677Z,101088.22
2023-05-09T13:55:26.639Z,101084.19
2023-05-09T13:57:53.097Z,101084.53
2023-05-09T14:00:21.388Z,101084.13
2023-05-09T14:02:48.361Z,101080.25
2023-05-09T14:05:15.052Z,101077.13
2023-05-09T14:07:41.488Z,101078.31
2023-05-09T14:10:11.978Z,101072.09
2023-05-09T14:12:40.493Z,101079.44
2023-05-09T14:15:08.342Z,101073.97
2023-05-09T14:17:34.889Z,101079.41
2023-05-09T14:20:01.368Z,101066.63
2023-05-09T14:22:28.264Z,101063.19
2023-05-09T14:24:56.548Z,101062.44
2023-05-09T14:27:23.193Z,101057.38
2023-05-09T14:29:49.690Z,101050.81
2023-05-09T14:32:16.223Z,101052.00
2023-05-09T14:34:42.964Z,101051.16
2023-05-09T14:37:13.863Z,101044.53
2023-05-09T14:39:42.532Z,101047.25
2023-05-09T14:42:11.524Z,101049.13
2023-05-09T14:44:38.730Z,101040.59
2023-05-09T14:47:05.773Z,101039.03
2023-05-09T14:49:32.751Z,101037.50
2023-05-09T14:51:59.485Z,101029.00
2023-05-09T14:54:26.235Z,101030.59
2023-05-09T14:56:52.676Z,101036.44
2023-05-09T14:59:19.166Z,101027.53
2023-05-09T15:01:46.402Z,101028.63
2023-05-09T15:04:13.102Z,101026.63
2023-05-09T15:06:39.772Z,101021.91
2023-05-09T15:09:06.974Z,101021.47
2023-05-09T15:11:43.790Z,101012.84
2023-05-09T15:14:14.026Z,101017.53
2023-05-09T15:16:40.633Z,101014.44
2023-05-09T15:19:08.188Z,101013.66
2023-05-09T15:21:35.208Z,101006.16
2023-05-09T15:24:02.614Z,101008.13
2023-05-09T15:26:29.596Z,100999.94
2023-05-09T15:28:56.238Z,100999.56
2023-05-09T15:31:24.143Z,101003.56
2023-05-09T15:33:50.737Z,101001.69
2023-05-09T15:36:17.363Z,101002.81
2023-05-09T15:38:46.185Z,101002.03
2023-05-09T15:41:12.720Z,100996.19
2023-05-09T15:43:39.307Z,101002.00
2023-05-09T15:46:05.919Z,100995.75
2023-05-09T15:48:32.416Z,100992.25
2023-05-09T15:50:58.951Z,100994.66
2023-05-09T15:53:27.549Z,100995.47
2023-05-09T15:55:54.361Z,100984.19
2023-05-09T15:58:20.892Z,100986.78
2023-05-09T16:00:47.818Z,100986.38
2023-05-09T16:03:14.250Z,100982.47
2023-05-09T16:05:41.096Z,100981.97
2023-05-09T16:08:07.824Z,100988.97
2023-05-09T16:10:34.284Z,100983.47
2023-05-09T16:13:00.926Z,100976.78
2023-05-09T16:15:27.583Z,100981.38
2023-05-09T16:17:54.129Z,100979.78
2023-05-09T16:20:20.640Z,100980.94
2023-05-09T16:22:47.198Z,100975.03
2023-05-09T16:25:13.963Z,100976.63
2023-05-09T16:27:40.721Z,100975.91
2023-05-09T16:30:07.958Z,100962.34
2023-05-09T16:32:34.324Z,100961.19
2023-05-09T16:35:00.981Z,100967.09
2023-05-09T16:37:29.802Z,100956.22
2023-05-09T16:39:56.476Z,100959.75
2023-05-09T16:42:23.036Z,100960.06
2023-05-09T16:44:49.589Z,100961.66
2023-05-09T16:47:16.098Z,100952.69
2023-05-09T16:49:42.628Z,100949.22
2023-05-09T16:52:09.410Z,100938.34
2023-05-09T16:54:35.858Z,100944.22
2023-05-09T16:57:03.233Z,100941.09
2023-05-09T16:59:30.024Z,100939.94
2023-05-09T17:01:58.050Z,100940.72
2023-05-09T17:04:25.306Z,100937.22
2023-05-09T17:06:53.407Z,100931.34
2023-05-09T17:09:19.920Z,100938.31
2023-05-09T17:11:46.510Z,100935.22
2023-05-09T17:14:12.982Z,100930.56
2023-05-09T17:16:39.533Z,100927.03
2023-05-09T17:19:06.159Z,100928.59
2023-05-09T17:21:32.753Z,100926.63
2023-05-09T17:23:59.383Z,100936.28
2023-05-09T17:26:25.985Z,100934.72
2023-05-09T17:28:52.484Z,100937.81
2023-05-09T17:31:19.169Z,100922.22
2023-05-09T17:33:45.874Z,100921.06
2023-05-09T17:36:12.323Z,100919.06
2023-05-09T17:38:38.781Z,100918.28
2023-05-09T17:41:05.989Z,100922.56
2023-05-09T17:43:32.466Z,100926.44
2023-05-09T17:45:59.257Z,100933.06
2023-05-09T17:48:25.947Z,100926.88
2023-05-09T17:50:52.798Z,100932.69
2023-05-09T17:53:19.280Z,100922.91
2023-05-09T17:55:45.719Z,100920.13
2023-05-09T17:58:12.144Z,100924.34
2023-05-09T18:00:38.612Z,100923.97
2023-05-09T18:03:05.290Z,100916.59
2023-05-09T18:05:32.036Z,100925.13
2023-05-09T18:08:00.904Z,100921.19
2023-05-09T18:10:28.373Z,100916.13
2023-05-09T18:12:55.240Z,100916.50
2023-05-09T18:15:21.894Z,100919.59
2023-05-09T18:17:49.238Z,100925.78
2023-05-09T18:20:15.892Z,100915.63
2023-05-09T18:22:42.523Z,100922.22
2023-05-09T18:25:10.134Z,100915.25
2023-05-09T18:27:36.853Z,100921.03
2023-05-09T18:30:04.177Z,100920.63
2023-05-09T18:32:33.257Z,100920.63
2023-05-09T18:35:04.030Z,100913.22
2023-05-09T18:37:34.763Z,100923.72
2023-05-09T18:45:48.659Z,100916.00
2023-05-09T18:48:17.422Z,100918.72
2023-05-09T18:50:48.867Z,100919.50
2023-05-09T18:53:18.973Z,100915.25
2023-05-09T18:55:46.484Z,100921.44
2023-05-09T18:58:13.748Z,100918.31
2023-05-09T19:00:40.264Z,100917.50
2023-05-09T19:03:07.168Z,100919.44
2023-05-09T19:05:34.382Z,100923.69
2023-05-09T19:08:01.134Z,100917.41
2023-05-09T19:10:28.090Z,100915.84
2023-05-09T19:13:26.407Z,100922.03
2023-05-09T19:15:53.173Z,100921.28
2023-05-09T19:18:24.540Z,100919.69
2023-05-09T19:20:55.108Z,100924.34
2023-05-09T19:23:22.422Z,100923.50
2023-05-09T19:25:50.984Z,100922.38
2023-05-09T19:28:21.634Z,100925.09
2023-05-09T19:30:49.167Z,100930.88
2023-05-09T19:33:23.652Z,100930.47
2023-05-09T19:35:57.291Z,100934.72
2023-05-09T19:38:31.404Z,100941.31
2023-05-09T19:40:59.567Z,100936.66
2023-05-09T19:43:27.025Z,100940.94
2023-05-09T19:45:54.318Z,100943.31
2023-05-09T19:48:25.893Z,100940.16
2023-05-09T19:51:01.628Z,100940.94
2023-05-09T19:53:31.611Z,100944.81
2023-05-09T19:56:03.891Z,100942.09
2023-05-09T19:58:54.893Z,100955.28
2023-05-09T20:01:26.263Z,100945.91
2023-05-09T20:03:54.713Z,100945.13
2023-05-09T20:06:22.464Z,100954.47
2023-05-09T20:08:52.025Z,100956.38
2023-05-09T20:11:19.650Z,100957.50
2023-05-09T20:21:50.075Z,100961.59
2023-05-09T20:24:16.711Z,100961.09
2023-05-09T20:26:43.527Z,100964.94
2023-05-09T20:29:10.334Z,100970.38
2023-05-09T20:31:37.074Z,100968.03
2023-05-09T20:34:03.744Z,100966.00
2023-05-09T20:36:30.646Z,100964.44
2023-05-09T20:39:17.730Z,100968.72
2023-05-09T20:41:56.132Z,100969.88
2023-05-09T20:44:26.713Z,100969.06
2023-05-09T20:47:08.433Z,100967.09
2023-05-09T20:49:41.995Z,100978.75
2023-05-09T20:52:08.527Z,100970.59
2023-05-09T20:54:35.854Z,100976.41
2023-05-09T20:57:03.180Z,100978.34
2023-05-09T20:59:30.527Z,100983.28
2023-05-09T21:07:30.738Z,100986.38
2023-05-09T21:09:58.655Z,100979.38
2023-05-09T21:12:26.082Z,100969.63
2023-05-09T21:14:53.308Z,100973.53
2023-05-09T21:17:21.857Z,100973.88
2023-05-09T21:19:52.220Z,100970.41
2023-05-09T21:22:19.525Z,100973.13
2023-05-09T21:24:46.781Z,100967.22
2023-05-09T21:27:14.523Z,100972.66
2023-05-09T21:30:01.682Z,100970.69
2023-05-09T21:32:29.371Z,100966.03
2023-05-09T21:34:56.334Z,100962.91
2023-05-09T21:37:28.104Z,100966.75
2023-05-09T21:40:15.651Z,100963.69
2023-05-09T21:42:47.618Z,100959.38
2023-05-09T21:45:14.412Z,100955.13
2023-05-09T21:47:44.280Z,100961.34
2023-05-09T21:50:12.694Z,100955.91
2023-05-09T21:52:40.038Z,100960.19
2023-05-09T21:55:16.678Z,100954.03
2023-05-09T21:57:50.660Z,100950.88
2023-05-09T22:00:22.170Z,100946.97
2023-05-09T22:02:49.953Z,100952.00
2023-05-09T22:05:42.139Z,100947.34
2023-05-09T22:08:22.928Z,100948.06
2023-05-09T22:10:50.135Z,100945.66
2023-05-09T22:13:21.316Z,100951.06
2023-05-09T22:16:11.021Z,100948.00
2023-05-09T22:18:40.950Z,100946.44
2023-05-09T22:21:10.925Z,100941.78
2023-05-09T22:23:44.785Z,100946.38
2023-05-09T22:26:27.706Z,100943.22
2023-05-09T22:29:25.918Z,100933.09
2023-05-09T22:31:59.871Z,100938.53
2023-05-09T22:34:30.577Z,100942.75
2023-05-09T22:37:11.182Z,100938.47
2023-05-09T22:39:37.877Z,100934.63
2023-05-09T22:42:05.176Z,100929.97
2023-05-09T22:44:34.180Z,100928.06
2023-05-09T22:47:04.122Z,100935.81
2023-05-09T22:49:57.147Z,100931.97
2023-05-09T22:52:24.583Z,100937.75
2023-05-09T22:54:54.490Z,100938.09
2023-05-09T22:57:26.048Z,100930.31
2023-05-09T22:59:53.794Z,100935.69
2023-05-09T23:02:24.098Z,100936.50
2023-05-09T23:04:55.726Z,100940.34
2023-05-09T23:07:23.900Z,100937.63
2023-05-09T23:12:57.100Z,100940.28
2023-05-09T23:18:23.848Z,100937.88
2023-05-09T23:21:14.921Z,100937.47
2023-05-09T23:23:44.952Z,100936.25
2023-05-09T23:26:16.319Z,100926.19
2023-05-09T23:28:49.971Z,100937.75
2023-05-09T23:31:17.374Z,100939.31
2023-05-09T23:33:44.674Z,100937.75
2023-05-09T23:36:18.161Z,100929.22
2023-05-09T23:38:46.352Z,100937.00
2023-05-09T23:41:17.783Z,100931.91
2023-05-09T23:43:48.009Z,100931.91
2023-05-09T23:46:15.760Z,100927.25
2023-05-09T23:48:46.894Z,100928.84
2023-05-09T23:51:22.409Z,100924.56
2023-05-09T23:53:56.992Z,100928.03
2023-05-09T23:56:28.390Z,100929.63
2023-05-09T23:58:56.965Z,100926.56
